Bowman Field
KLOU : now visible

Airfield :











YOU CAN JOIN US ON...

 
LOGIN :

Register | Disclaimer

   EN    FR    IT 

 









Legend :    VFR   Marginal VFR   IFR   Intensive IFR   Very Intensive IFR
Visi :
Ceiling :
>= 8 km
>= 3000ft
5 to 8 km
1000 to 3000 ft
1500m to 5 km
500 to 1000 ft
800 to 1500m
200 to 500 ft
< 800m
< 200 ft
Symbols :   Thunderstorms  Fog  Heavy snow  Heavy precipitations  Wind > 20 kt






- Airport Elevation : 546 ft


KLOU - Bowman Field

CURRENT METAR :
  • 140119Z 01003KT 4SM -RA BR FEW006 BKN011 OVC041 08/06 A2982 RMK AO2 P0004 T00780061

EXPIRED METARs :
  • 140053Z 04003KT 5SM -RA BR BKN010 OVC011 08/06 A2982 RMK AO2 SLP100 P0008 T00780061
  • 140027Z 00000KT 4SM -RA BR BKN010 OVC011 08/06 A2984 RMK AO2 P0006 T00780061
  • 140020Z 00000KT 3SM -RA BR OVC008 08/06 A2984 RMK AO2 P0005 T00780061
  • 132353Z 00000KT 3SM -RA BR OVC012 08/06 A2985 RMK AO2 RAB2255 SLP110 P0005 60016 T00780061 10094 20078 56012
  • 132313Z 00000KT 7SM -RA OVC010 08/06 A2986 RMK AO2 RAB2255 CIG 007V013 P0001 T00780061
  • 132253Z 00000KT 10SM BKN009 OVC016 08/06 A2986 RMK AO2 RAE15 CIG 007V012 SLP112 P0000 T00830061
  • 132245Z 00000KT 10SM BKN008 OVC016 08/06 A2986 RMK AO2 RAE15 CIG 007V013 P0000 T00830061
  • 132226Z 00000KT 10SM BKN015 OVC070 08/06 A2986 RMK AO2 RAE15 P0000 T00830061

TAF N/A



MET'MAP, your aeronautical weather chart ! - Copyright ORBIFLY December 2007 - Disclaimer

ORBIFLY MET'MAP TEAM :

Programming & Development : Alexandra Zaïnal
Concept & original design : Baudouin d'Aumeries
Assistance for programming : Marc-Olivier Méhu
Technical & hardware support : Manuel Goepfert

Contact : metmap@orbifly.com




SOURCES & CREDITS :

   NOAA       Earth
Advisory